Bayshore Gardens, Florida
Current Conditions -  °F | °C
As of 2:53 AM on Thursday 18 Dec 2014 (Local Time) from KSRQ Reporting Station
Clear Clear  
Wind Chill: 49°   Ceiling: Unl
Heat Index: 49°   Visibility: 9mi
Dew Point: 48°   Wind: 3mph
Humidity: 97%   Direction: 130°SE
Pressure: 30.14"   Gusts: NA
Location:  27.4402°N, 82.5786°W
Report Text: KSRQ 180753Z AUTO 13003KT 9SM CLR 09/09 A3014 RMK AO2 SLP205 T00940089
Loading
Personal Weather Stations






























Interactive Weather Map New forecast layout! Learn more

10-Day Weather Forecast

Advertisements
Track Severe Weather on mobile